Keyser, WV (26726)

1:55 AM EST on February 08, 2016 (GMT -0500)
McCoole | | Change Station
CLOSE
Current Station
Personal Weather Station
Location: Maryland, MD
Elevation: 823 ft
Nearby Weather Stations
Active Advisory: Winter Weather Advisory

Elev 823 ft 39.45 °N, 78.98 °W | Updated 6 minutes ago

Clear
Clear
24.4 °F
Feels Like 24 °F
N
0.0
Wind Variable Wind from ESE

Today
High -- | Low -- °F
--% Chance of Precip.
Yesterday
High -- | Low -- °F
Precip. -- in
Pressure 29.88 in
Visibility 10.0 miles
Clouds Clear
Windchill 24 °F
Dew Point 23 °F
Humidity 94%
Rainfall 0.00 in
Snow Depth Not available.
7:16 AM 5:44 PM
Waning Crescent, 0% visible
METAR KCBE 080649Z AUTO 00000KT 10SM CLR M02/M03 A2988 RMK AO1
Pressure 29.88 in
Visibility 10.0 miles
Clouds Clear
Windchill 24 °F
Dew Point 23 °F
Humidity 94%
Rainfall 0.00 in
Snow Depth Not available.
7:16 AM 5:44 PM
Waning Crescent, 0% visible
METAR KCBE 080649Z AUTO 00000KT 10SM CLR M02/M03 A2988 RMK AO1

10-Day Weather Forecast

Almanac

Astronomy

Feb. 08, 2016 Rise Set
Actual Time
Civil Twilight
Nautical Twilight
Astronomical Twilight
Moon
Length of Visible Light
Length of Day
Tomorrow will be .
, % of the Moon is Illuminated

Today's Extremes

State Highs State Lows

Community

WunderPhotos

Upload Photos

1,891,395 photos uploaded!

WunderBlog® & News

Nearby

Air Quality

  Air Quality AQ Index Pollutant
Not available.

Snow Depth

Station Depth Elevation

Earthquake Activity

City Distance Mag. Time & Date
Minimum magnitude displayed is 2.5.

Coastal Water Temperatures

Place Temperature

Stations

Nearby Weather Stations

Station Location Temp. Windchill Dew Point Humidity Wind Precip. Elev Updated Type
                   

Watches & Warnings

Winter Weather Advisory
Issued: 8:22 PM EST Feb. 7, 2016 – National Weather Service

... Winter Weather Advisory in effect from noon Monday to 1 am EST
Tuesday...

The National Weather Service in Baltimore MD/Washington has
issued a Winter Weather Advisory for snow... which is in effect
from noon Monday to 1 am EST Tuesday.

* Precipitation type... snow

* accumulations... 2 to 4 inches..

* timing... areas of snow heavy at times Monday afternoon... becoming
snow showers Monday night. This may need to be extended into
Tuesday.

* Impacts... snow covered roads and travel disruptions.

* Winds... south 5 to 10 mph... becoming west.

* Temperatures... low to mid 30s at onset... decreasing into the
20s.

Precautionary/preparedness actions...

A Winter Weather Advisory for snow means that periods of snow
will cause primarily travel difficulties. Be prepared for snow
covered roads and limited visibilities... and use caution while
driving.